Shana Des Slops — FFZR — position and weather

sailwx.info

Track history (hours):
 
Tides and Currents Weather Stations Pressure Air Temp Water Temp Dewpoint Dewpoint Depression Visibility Wind Speed Wind Dir Waves Ship Positions

Shana Des Slops

Last reported at 2016-Jul-31 05:33 UTC. Time now 2016-Jul-31 07:23 UTC.
Position N 43°24' E 004°60'.

Length 47 m; draft 3.2 m.

Type: Ship. MMSI: 228003800.

Date/timePositionNaut miles runAvg speedWind from/ knotsBaromVisibWave heightAir tempDewpointWater temp
2016-Jul-31 05:33N 43°24' E 004°60'0 0.0
2016-Jul-31 04:33N 43°24' E 004°60'0 0.0
2016-Jul-31 03:33N 43°24' E 004°60'0 0.0
2016-Jul-31 02:33N 43°24' E 004°60'0 0.0
2016-Jul-31 01:33N 43°24' E 004°60'0 0.0
2016-Jul-31 00:33N 43°24' E 004°60'0 0.0
2016-Jul-30 22:33N 43°24' E 004°60'0 0.0
2016-Jul-30 21:33N 43°24' E 004°60'0 0.0
2016-Jul-30 20:33N 43°24' E 004°60'0 0.0
2016-Jul-30 19:33N 43°24' E 004°60'0 0.0
2016-Jul-30 18:33N 43°24' E 004°60'0 0.0
2016-Jul-30 17:33N 43°24' E 004°60'0 0.0
2016-Jul-30 16:33N 43°24' E 004°60'0 0.0
2016-Jul-30 15:32N 43°24' E 004°60'4 4.5
2016-Jul-30 14:33N 43°24' E 004°54'2 1.8
2016-Jul-30 13:17N 43°25' E 004°51'0 0.0
2016-Jul-30 06:33N 43°25' E 004°51'3 2.9
2016-Jul-30 05:33N 43°24' E 004°55'4 3.7
2016-Jul-30 04:32N 43°24' E 004°60'0 0.0
2016-Jul-30 03:32N 43°24' E 004°60'0 0.0
2016-Jul-30 02:32N 43°24' E 004°60'0 0.0
2016-Jul-30 01:32N 43°24' E 004°60'0 0.0
2016-Jul-30 00:32N 43°24' E 004°60'0 0.0
2016-Jul-29 23:32N 43°24' E 004°60'0 0.0
2016-Jul-29 22:29N 43°24' E 004°60'0 0.0
2016-Jul-29 21:32N 43°24' E 004°60'0 0.0
2016-Jul-29 20:32N 43°24' E 004°60'0 0.0
2016-Jul-29 19:29N 43°24' E 004°60'0 0.0
2016-Jul-29 18:23N 43°24' E 004°60'0 0.3
2016-Jul-29 17:33N 43°24' E 004°60'3 2.4
2016-Jul-29 16:25N 43°25' E 004°56'0 0.0
2016-Jul-29 15:28N 43°25' E 004°56'3 3.3
2016-Jul-29 14:33N 43°24' E 004°60'0 0.0
2016-Jul-29 13:33N 43°24' E 004°60'0 0.0
2016-Jul-29 12:33N 43°24' E 004°60'0 0.0
2016-Jul-29 11:33N 43°24' E 004°60'0 0.0
2016-Jul-29 10:33N 43°24' E 004°60'0 0.0
2016-Jul-29 09:33N 43°24' E 004°60'0 0.0
2016-Jul-29 08:33N 43°24' E 004°60'0 0.0
2016-Jul-29 07:27N 43°24' E 004°60'0 0.0
2016-Jul-29 06:33N 43°24' E 004°60'0 0.0
2016-Jul-29 05:33N 43°24' E 004°60'0 0.0
2016-Jul-29 04:33N 43°24' E 004°60'0 0.0
2016-Jul-29 03:33N 43°24' E 004°60'0 0.0
2016-Jul-29 02:33N 43°24' E 004°60'0 0.0
2016-Jul-29 01:33N 43°24' E 004°60'0 0.0
2016-Jul-29 00:33N 43°24' E 004°60'0 0.0
2016-Jul-28 23:33N 43°24' E 004°60'0 0.0
2016-Jul-28 22:33N 43°24' E 004°60'0 0.0
2016-Jul-28 21:33N 43°24' E 004°60'0 0.0
2016-Jul-28 20:33N 43°24' E 004°60'0 0.0
2016-Jul-28 19:33N 43°24' E 004°60'0 0.0
2016-Jul-28 18:33N 43°24' E 004°60'0 0.0
2016-Jul-28 17:33N 43°24' E 004°60'0 0.0
2016-Jul-28 16:33N 43°24' E 004°60'0 0.0
2016-Jul-28 15:30N 43°24' E 004°60'0 0.0
2016-Jul-28 14:28N 43°24' E 004°60'0 0.0
2016-Jul-28 13:31N 43°24' E 004°60'0 0.0
2016-Jul-28 12:31N 43°24' E 004°60'0 0.3
2016-Jul-28 11:32N 43°24' E 004°60'0 0.0
2016-Jul-28 10:32N 43°24' E 004°60'0 0.3
2016-Jul-28 09:32N 43°24' E 004°60'0 0.0
2016-Jul-28 08:32N 43°24' E 004°60'0 0.0
2016-Jul-28 07:32N 43°24' E 004°60'0 0.0
2016-Jul-28 06:33N 43°24' E 004°60'0 0.0
2016-Jul-28 05:33N 43°24' E 004°60'0 0.0
2016-Jul-28 04:33N 43°24' E 004°60'0 0.0
2016-Jul-28 03:33N 43°24' E 004°60'0 0.0
2016-Jul-28 02:33N 43°24' E 004°60'0 0.0
2016-Jul-28 01:33N 43°24' E 004°60'0 0.0
2016-Jul-28 00:33N 43°24' E 004°60'0 0.0
2016-Jul-27 23:33N 43°24' E 004°60'0 0.0
2016-Jul-27 22:33N 43°24' E 004°60'0 0.0
2016-Jul-27 21:33N 43°24' E 004°60'0 0.0
2016-Jul-27 20:33N 43°24' E 004°60'0 0.0
2016-Jul-27 19:33N 43°24' E 004°60'0 0.0
2016-Jul-27 18:33N 43°24' E 004°60'0 0.0
2016-Jul-27 17:30N 43°24' E 004°60'0 0.0
2016-Jul-27 16:33N 43°24' E 004°60'0 0.0
2016-Jul-27 15:30N 43°24' E 004°60'0 0.0
2016-Jul-27 14:33N 43°24' E 004°60'0 0.0
2016-Jul-27 13:31N 43°24' E 004°60'0 0.0
2016-Jul-27 12:31N 43°24' E 004°60'0 0.0
2016-Jul-27 11:31N 43°24' E 004°60'0 0.0
2016-Jul-27 10:31N 43°24' E 004°60'0 0.0
2016-Jul-27 09:31N 43°24' E 004°60'2 2.3
2016-Jul-27 08:33N 43°24' E 004°57'1 0.9
2016-Jul-27 07:32N 43°25' E 004°56'0 0.0
2016-Jul-27 06:34N 43°25' E 004°56'3 3.0
2016-Jul-27 05:32N 43°24' E 004°60'0 0.0
2016-Jul-27 04:32N 43°24' E 004°60'0 0.0
2016-Jul-27 03:29N 43°24' E 004°60'0 0.0
2016-Jul-27 02:33N 43°24' E 004°60'0 0.0
2016-Jul-27 01:33N 43°24' E 004°60'0 0.0
2016-Jul-27 00:33N 43°24' E 004°60'0 0.0
2016-Jul-26 23:33N 43°24' E 004°60'0 0.0
2016-Jul-26 22:33N 43°24' E 004°60'0 0.0
2016-Jul-26 21:33N 43°24' E 004°60'0 0.0
2016-Jul-26 20:33N 43°24' E 004°60'0 0.0
2016-Jul-26 19:33N 43°24' E 004°60'0 0.0
2016-Jul-26 18:33N 43°24' E 004°60'0 0.0
2016-Jul-26 17:33N 43°24' E 004°60'0 0.0
2016-Jul-26 16:31N 43°24' E 004°60'0 0.0
2016-Jul-26 15:31N 43°24' E 004°60'0 0.0
2016-Jul-26 14:31N 43°24' E 004°60'0 0.0
2016-Jul-26 13:31N 43°24' E 004°60'0 0.0
2016-Jul-26 12:31N 43°24' E 004°60'0 0.0
2016-Jul-26 11:31N 43°24' E 004°60'0 0.0
2016-Jul-26 10:31N 43°24' E 004°60'0 0.0
2016-Jul-26 09:31N 43°24' E 004°60'0 0.0
2016-Jul-26 08:31N 43°24' E 004°60'1 0.7
2016-Jul-26 07:33N 43°24' E 005°01'0 0.0
2016-Jul-26 06:33N 43°24' E 005°01'1 0.7
2016-Jul-26 05:33N 43°24' E 004°60'0 0.0
2016-Jul-26 04:33N 43°24' E 004°60'0 0.0
2016-Jul-26 03:33N 43°24' E 004°60'0 0.0
2016-Jul-26 02:30N 43°24' E 004°60'0 0.0
2016-Jul-26 01:33N 43°24' E 004°60'0 0.0
2016-Jul-26 00:33N 43°24' E 004°60'0 0.0
2016-Jul-25 23:33N 43°24' E 004°60'0 0.0
2016-Jul-25 22:33N 43°24' E 004°60'0 0.0
2016-Jul-25 21:33N 43°24' E 004°60'0 0.0
2016-Jul-25 20:33N 43°24' E 004°60'0 0.0
2016-Jul-25 19:33N 43°24' E 004°60'0 0.0
2016-Jul-25 18:33N 43°24' E 004°60'0 0.0
2016-Jul-25 17:33N 43°24' E 004°60'0 0.0
2016-Jul-25 16:33N 43°24' E 004°60'6 0.8
2016-Jul-25 09:25N 43°26' E 004°52'1 0.7
2016-Jul-25 07:07N 43°25' E 004°54'4 7.7
2016-Jul-25 06:33N 43°24' E 004°60'0 0.1
2016-Jul-25 05:28N 43°24' E 004°60'0 0.0
2016-Jul-25 04:31N 43°24' E 004°60'0 0.0
2016-Jul-25 03:28N 43°24' E 004°60'0 0.0
2016-Jul-25 02:31N 43°24' E 004°60'0 0.0
2016-Jul-25 01:31N 43°24' E 004°60'0 0.0
2016-Jul-25 00:31N 43°24' E 004°60'0 0.0
2016-Jul-24 23:31N 43°24' E 004°60'0 0.0
2016-Jul-24 22:31N 43°24' E 004°60'0 0.0
2016-Jul-24 21:31N 43°24' E 004°60'0 0.0
2016-Jul-24 20:31N 43°24' E 004°60'0 0.0
2016-Jul-24 19:31N 43°24' E 004°60'0 0.0
2016-Jul-24 18:28N 43°24' E 004°60'0 0.0
2016-Jul-24 17:31N 43°24' E 004°60'0 0.0
2016-Jul-24 16:31N 43°24' E 004°60'0 0.0
2016-Jul-24 15:31N 43°24' E 004°60'0 0.0
2016-Jul-24 14:31N 43°24' E 004°60'0 0.0
2016-Jul-24 13:31N 43°24' E 004°60'0 0.0
2016-Jul-24 12:31N 43°24' E 004°60'0 0.0
2016-Jul-24 11:31N 43°24' E 004°60'0 0.0
2016-Jul-24 10:31N 43°24' E 004°60'0 0.0
2016-Jul-24 09:31N 43°24' E 004°60'0 0.0
2016-Jul-24 08:31N 43°24' E 004°60'0 0.0
2016-Jul-24 07:31N 43°24' E 004°60'0 0.0
2016-Jul-24 06:31N 43°24' E 004°60'0 0.0
2016-Jul-24 05:31N 43°24' E 004°60'0 0.0
2016-Jul-24 04:31N 43°24' E 004°60'0 0.0
2016-Jul-24 03:31N 43°24' E 004°60'0 0.0
2016-Jul-24 02:31N 43°24' E 004°60'0 0.0
2016-Jul-24 01:31N 43°24' E 004°60'0 0.0
2016-Jul-24 00:28N 43°24' E 004°60'0 0.0
2016-Jul-23 23:31N 43°24' E 004°60'0 0.0
2016-Jul-23 22:31N 43°24' E 004°60'0 0.0
2016-Jul-23 21:31N 43°24' E 004°60'0 0.0
2016-Jul-23 20:33N 43°24' E 004°60'0 0.0
2016-Jul-23 19:33N 43°24' E 004°60'0 0.0
2016-Jul-23 18:33N 43°24' E 004°60'0 0.0
2016-Jul-23 17:33N 43°24' E 004°60'0 0.0
2016-Jul-23 16:33N 43°24' E 004°60'0 0.0
2016-Jul-23 15:33N 43°24' E 004°60'0 0.0
2016-Jul-23 14:33N 43°24' E 004°60'0 0.0
2016-Jul-23 13:33N 43°24' E 004°60'0 0.0
2016-Jul-23 12:33N 43°24' E 004°60'0 0.0
2016-Jul-23 11:33N 43°24' E 004°60'0 0.0
2016-Jul-23 10:30N 43°24' E 004°60'0 0.0
2016-Jul-23 09:33N 43°24' E 004°60'0 0.0
2016-Jul-23 08:33N 43°24' E 004°60'0 0.0
2016-Jul-23 07:33N 43°24' E 004°60'0 0.0
2016-Jul-23 06:33N 43°24' E 004°60'0 0.0
2016-Jul-23 04:33N 43°24' E 004°60'0 0.0
2016-Jul-23 03:33N 43°24' E 004°60'0 0.0
2016-Jul-23 02:33N 43°24' E 004°60'0 0.0
2016-Jul-23 01:33N 43°24' E 004°60'0 0.0
2016-Jul-23 00:33N 43°24' E 004°60'0 0.0
2016-Jul-22 23:33N 43°24' E 004°60'0 0.0
2016-Jul-22 22:33N 43°24' E 004°60'0 0.0
2016-Jul-22 21:32N 43°24' E 004°60'0 0.0
2016-Jul-22 20:32N 43°24' E 004°60'0 0.0
2016-Jul-22 19:32N 43°24' E 004°60'0 0.0
2016-Jul-22 18:29N 43°24' E 004°60'0 0.0
2016-Jul-22 17:32N 43°24' E 004°60'0 0.0
2016-Jul-22 16:32N 43°24' E 004°60'0 0.0
2016-Jul-22 15:32N 43°24' E 004°60'0 0.0
2016-Jul-22 14:32N 43°24' E 004°60'0 0.0
2016-Jul-22 13:32N 43°24' E 004°60'0 0.0
2016-Jul-22 12:32N 43°24' E 004°60'0 0.0
2016-Jul-22 11:32N 43°24' E 004°60'0 0.0
2016-Jul-22 10:32N 43°24' E 004°60'0 0.0
2016-Jul-22 09:32N 43°24' E 004°60'0 0.0
2016-Jul-22 08:32N 43°24' E 004°60'0 0.0
2016-Jul-22 07:32N 43°24' E 004°60'0 0.0
2016-Jul-22 04:32N 43°24' E 004°60'0 0.0
2016-Jul-22 03:33N 43°24' E 004°60'0 0.0
2016-Jul-22 02:33N 43°24' E 004°60'0 0.0
2016-Jul-22 01:33N 43°24' E 004°60'0 0.0
2016-Jul-22 00:33N 43°24' E 004°60'0 0.0
2016-Jul-21 23:33N 43°24' E 004°60'0 0.0
2016-Jul-21 22:33N 43°24' E 004°60'0 0.0
2016-Jul-21 21:33N 43°24' E 004°60'0 0.0
2016-Jul-21 20:33N 43°24' E 004°60'0 0.0
2016-Jul-21 19:31N 43°24' E 004°60'0 0.0
2016-Jul-21 18:31N 43°24' E 004°60'0 0.0
2016-Jul-21 17:31N 43°24' E 004°60'0 0.0
2016-Jul-21 16:33N 43°24' E 004°60'0 0.0
2016-Jul-21 15:33N 43°24' E 004°60'0 0.0
2016-Jul-21 14:32N 43°24' E 004°60'0 0.0
2016-Jul-21 13:32N 43°24' E 004°60'0 0.0
2016-Jul-21 12:32N 43°24' E 004°60'0 0.0
2016-Jul-21 11:29N 43°24' E 004°60'0 0.0
2016-Jul-21 10:29N 43°24' E 004°60'0 0.0
2016-Jul-21 09:32N 43°24' E 004°60'0 0.0
2016-Jul-21 08:12N 43°24' E 004°60'0 0.0
2016-Jul-21 07:30N 43°24' E 004°60'0 0.0
2016-Jul-21 06:30N 43°24' E 004°60'  
Track history (hours):
 
Tides and Currents Weather Stations Pressure Air Temp Water Temp Dewpoint Dewpoint Depression Visibility Wind Speed Wind Dir Waves Ship Positions

Shana Des Slops

Last reported at 2016-Jul-31 05:33 UTC. Time now 2016-Jul-31 07:23 UTC.
Position N 43°24' E 004°60'.

Length 47 m; draft 3.2 m.

Type: Ship. MMSI: 228003800.

Date/timePositionNaut miles runAvg speedWind from/ knotsBaromVisibWave heightAir tempDewpointWater temp
2016-Jul-31 05:33N 43°24' E 004°60'0 0.0
2016-Jul-31 04:33N 43°24' E 004°60'0 0.0
2016-Jul-31 03:33N 43°24' E 004°60'0 0.0
2016-Jul-31 02:33N 43°24' E 004°60'0 0.0
2016-Jul-31 01:33N 43°24' E 004°60'0 0.0
2016-Jul-31 00:33N 43°24' E 004°60'0 0.0
2016-Jul-30 22:33N 43°24' E 004°60'0 0.0
2016-Jul-30 21:33N 43°24' E 004°60'0 0.0
2016-Jul-30 20:33N 43°24' E 004°60'0 0.0
2016-Jul-30 19:33N 43°24' E 004°60'0 0.0
2016-Jul-30 18:33N 43°24' E 004°60'0 0.0
2016-Jul-30 17:33N 43°24' E 004°60'0 0.0
2016-Jul-30 16:33N 43°24' E 004°60'0 0.0
2016-Jul-30 15:32N 43°24' E 004°60'4 4.5
2016-Jul-30 14:33N 43°24' E 004°54'2 1.8
2016-Jul-30 13:17N 43°25' E 004°51'0 0.0
2016-Jul-30 06:33N 43°25' E 004°51'3 2.9
2016-Jul-30 05:33N 43°24' E 004°55'4 3.7
2016-Jul-30 04:32N 43°24' E 004°60'0 0.0
2016-Jul-30 03:32N 43°24' E 004°60'0 0.0
2016-Jul-30 02:32N 43°24' E 004°60'0 0.0
2016-Jul-30 01:32N 43°24' E 004°60'0 0.0
2016-Jul-30 00:32N 43°24' E 004°60'0 0.0
2016-Jul-29 23:32N 43°24' E 004°60'0 0.0
2016-Jul-29 22:29N 43°24' E 004°60'0 0.0
2016-Jul-29 21:32N 43°24' E 004°60'0 0.0
2016-Jul-29 20:32N 43°24' E 004°60'0 0.0
2016-Jul-29 19:29N 43°24' E 004°60'0 0.0
2016-Jul-29 18:23N 43°24' E 004°60'0 0.3
2016-Jul-29 17:33N 43°24' E 004°60'3 2.4
2016-Jul-29 16:25N 43°25' E 004°56'0 0.0
2016-Jul-29 15:28N 43°25' E 004°56'3 3.3
2016-Jul-29 14:33N 43°24' E 004°60'0 0.0
2016-Jul-29 13:33N 43°24' E 004°60'0 0.0
2016-Jul-29 12:33N 43°24' E 004°60'0 0.0
2016-Jul-29 11:33N 43°24' E 004°60'0 0.0
2016-Jul-29 10:33N 43°24' E 004°60'0 0.0
2016-Jul-29 09:33N 43°24' E 004°60'0 0.0
2016-Jul-29 08:33N 43°24' E 004°60'0 0.0
2016-Jul-29 07:27N 43°24' E 004°60'0 0.0
2016-Jul-29 06:33N 43°24' E 004°60'0 0.0
2016-Jul-29 05:33N 43°24' E 004°60'0 0.0
2016-Jul-29 04:33N 43°24' E 004°60'0 0.0
2016-Jul-29 03:33N 43°24' E 004°60'0 0.0
2016-Jul-29 02:33N 43°24' E 004°60'0 0.0
2016-Jul-29 01:33N 43°24' E 004°60'0 0.0
2016-Jul-29 00:33N 43°24' E 004°60'0 0.0
2016-Jul-28 23:33N 43°24' E 004°60'0 0.0
2016-Jul-28 22:33N 43°24' E 004°60'0 0.0
2016-Jul-28 21:33N 43°24' E 004°60'0 0.0
2016-Jul-28 20:33N 43°24' E 004°60'0 0.0
2016-Jul-28 19:33N 43°24' E 004°60'0 0.0
2016-Jul-28 18:33N 43°24' E 004°60'0 0.0
2016-Jul-28 17:33N 43°24' E 004°60'0 0.0
2016-Jul-28 16:33N 43°24' E 004°60'0 0.0
2016-Jul-28 15:30N 43°24' E 004°60'0 0.0
2016-Jul-28 14:28N 43°24' E 004°60'0 0.0
2016-Jul-28 13:31N 43°24' E 004°60'0 0.0
2016-Jul-28 12:31N 43°24' E 004°60'0 0.3
2016-Jul-28 11:32N 43°24' E 004°60'0 0.0
2016-Jul-28 10:32N 43°24' E 004°60'0 0.3
2016-Jul-28 09:32N 43°24' E 004°60'0 0.0
2016-Jul-28 08:32N 43°24' E 004°60'0 0.0
2016-Jul-28 07:32N 43°24' E 004°60'0 0.0
2016-Jul-28 06:33N 43°24' E 004°60'0 0.0
2016-Jul-28 05:33N 43°24' E 004°60'0 0.0
2016-Jul-28 04:33N 43°24' E 004°60'0 0.0
2016-Jul-28 03:33N 43°24' E 004°60'0 0.0
2016-Jul-28 02:33N 43°24' E 004°60'0 0.0
2016-Jul-28 01:33N 43°24' E 004°60'0 0.0
2016-Jul-28 00:33N 43°24' E 004°60'0 0.0
2016-Jul-27 23:33N 43°24' E 004°60'0 0.0
2016-Jul-27 22:33N 43°24' E 004°60'0 0.0
2016-Jul-27 21:33N 43°24' E 004°60'0 0.0
2016-Jul-27 20:33N 43°24' E 004°60'0 0.0
2016-Jul-27 19:33N 43°24' E 004°60'0 0.0
2016-Jul-27 18:33N 43°24' E 004°60'0 0.0
2016-Jul-27 17:30N 43°24' E 004°60'0 0.0
2016-Jul-27 16:33N 43°24' E 004°60'0 0.0
2016-Jul-27 15:30N 43°24' E 004°60'0 0.0
2016-Jul-27 14:33N 43°24' E 004°60'0 0.0
2016-Jul-27 13:31N 43°24' E 004°60'0 0.0
2016-Jul-27 12:31N 43°24' E 004°60'0 0.0
2016-Jul-27 11:31N 43°24' E 004°60'0 0.0
2016-Jul-27 10:31N 43°24' E 004°60'0 0.0
2016-Jul-27 09:31N 43°24' E 004°60'2 2.3
2016-Jul-27 08:33N 43°24' E 004°57'1 0.9
2016-Jul-27 07:32N 43°25' E 004°56'0 0.0
2016-Jul-27 06:34N 43°25' E 004°56'3 3.0
2016-Jul-27 05:32N 43°24' E 004°60'0 0.0
2016-Jul-27 04:32N 43°24' E 004°60'0 0.0
2016-Jul-27 03:29N 43°24' E 004°60'0 0.0
2016-Jul-27 02:33N 43°24' E 004°60'0 0.0
2016-Jul-27 01:33N 43°24' E 004°60'0 0.0
2016-Jul-27 00:33N 43°24' E 004°60'0 0.0
2016-Jul-26 23:33N 43°24' E 004°60'0 0.0
2016-Jul-26 22:33N 43°24' E 004°60'0 0.0
2016-Jul-26 21:33N 43°24' E 004°60'0 0.0
2016-Jul-26 20:33N 43°24' E 004°60'0 0.0
2016-Jul-26 19:33N 43°24' E 004°60'0 0.0
2016-Jul-26 18:33N 43°24' E 004°60'0 0.0
2016-Jul-26 17:33N 43°24' E 004°60'0 0.0
2016-Jul-26 16:31N 43°24' E 004°60'0 0.0
2016-Jul-26 15:31N 43°24' E 004°60'0 0.0
2016-Jul-26 14:31N 43°24' E 004°60'0 0.0
2016-Jul-26 13:31N 43°24' E 004°60'0 0.0
2016-Jul-26 12:31N 43°24' E 004°60'0 0.0
2016-Jul-26 11:31N 43°24' E 004°60'0 0.0
2016-Jul-26 10:31N 43°24' E 004°60'0 0.0
2016-Jul-26 09:31N 43°24' E 004°60'0 0.0
2016-Jul-26 08:31N 43°24' E 004°60'1 0.7
2016-Jul-26 07:33N 43°24' E 005°01'0 0.0
2016-Jul-26 06:33N 43°24' E 005°01'1 0.7
2016-Jul-26 05:33N 43°24' E 004°60'0 0.0
2016-Jul-26 04:33N 43°24' E 004°60'0 0.0
2016-Jul-26 03:33N 43°24' E 004°60'0 0.0
2016-Jul-26 02:30N 43°24' E 004°60'0 0.0
2016-Jul-26 01:33N 43°24' E 004°60'0 0.0
2016-Jul-26 00:33N 43°24' E 004°60'0 0.0
2016-Jul-25 23:33N 43°24' E 004°60'0 0.0
2016-Jul-25 22:33N 43°24' E 004°60'0 0.0
2016-Jul-25 21:33N 43°24' E 004°60'0 0.0
2016-Jul-25 20:33N 43°24' E 004°60'0 0.0
2016-Jul-25 19:33N 43°24' E 004°60'0 0.0
2016-Jul-25 18:33N 43°24' E 004°60'0 0.0
2016-Jul-25 17:33N 43°24' E 004°60'0 0.0
2016-Jul-25 16:33N 43°24' E 004°60'6 0.8
2016-Jul-25 09:25N 43°26' E 004°52'1 0.7
2016-Jul-25 07:07N 43°25' E 004°54'4 7.7
2016-Jul-25 06:33N 43°24' E 004°60'0 0.1
2016-Jul-25 05:28N 43°24' E 004°60'0 0.0
2016-Jul-25 04:31N 43°24' E 004°60'0 0.0
2016-Jul-25 03:28N 43°24' E 004°60'0 0.0
2016-Jul-25 02:31N 43°24' E 004°60'0 0.0
2016-Jul-25 01:31N 43°24' E 004°60'0 0.0
2016-Jul-25 00:31N 43°24' E 004°60'0 0.0
2016-Jul-24 23:31N 43°24' E 004°60'0 0.0
2016-Jul-24 22:31N 43°24' E 004°60'0 0.0
2016-Jul-24 21:31N 43°24' E 004°60'0 0.0
2016-Jul-24 20:31N 43°24' E 004°60'0 0.0
2016-Jul-24 19:31N 43°24' E 004°60'0 0.0
2016-Jul-24 18:28N 43°24' E 004°60'0 0.0
2016-Jul-24 17:31N 43°24' E 004°60'0 0.0
2016-Jul-24 16:31N 43°24' E 004°60'0 0.0
2016-Jul-24 15:31N 43°24' E 004°60'0 0.0
2016-Jul-24 14:31N 43°24' E 004°60'0 0.0
2016-Jul-24 13:31N 43°24' E 004°60'0 0.0
2016-Jul-24 12:31N 43°24' E 004°60'0 0.0
2016-Jul-24 11:31N 43°24' E 004°60'0 0.0
2016-Jul-24 10:31N 43°24' E 004°60'0 0.0
2016-Jul-24 09:31N 43°24' E 004°60'0 0.0
2016-Jul-24 08:31N 43°24' E 004°60'0 0.0
2016-Jul-24 07:31N 43°24' E 004°60'0 0.0
2016-Jul-24 06:31N 43°24' E 004°60'0 0.0
2016-Jul-24 05:31N 43°24' E 004°60'0 0.0
2016-Jul-24 04:31N 43°24' E 004°60'0 0.0
2016-Jul-24 03:31N 43°24' E 004°60'0 0.0
2016-Jul-24 02:31N 43°24' E 004°60'0 0.0
2016-Jul-24 01:31N 43°24' E 004°60'0 0.0
2016-Jul-24 00:28N 43°24' E 004°60'0 0.0
2016-Jul-23 23:31N 43°24' E 004°60'0 0.0
2016-Jul-23 22:31N 43°24' E 004°60'0 0.0
2016-Jul-23 21:31N 43°24' E 004°60'0 0.0
2016-Jul-23 20:33N 43°24' E 004°60'0 0.0
2016-Jul-23 19:33N 43°24' E 004°60'0 0.0
2016-Jul-23 18:33N 43°24' E 004°60'0 0.0
2016-Jul-23 17:33N 43°24' E 004°60'0 0.0
2016-Jul-23 16:33N 43°24' E 004°60'0 0.0
2016-Jul-23 15:33N 43°24' E 004°60'0 0.0
2016-Jul-23 14:33N 43°24' E 004°60'0 0.0
2016-Jul-23 13:33N 43°24' E 004°60'0 0.0
2016-Jul-23 12:33N 43°24' E 004°60'0 0.0
2016-Jul-23 11:33N 43°24' E 004°60'0 0.0
2016-Jul-23 10:30N 43°24' E 004°60'0 0.0
2016-Jul-23 09:33N 43°24' E 004°60'0 0.0
2016-Jul-23 08:33N 43°24' E 004°60'0 0.0
2016-Jul-23 07:33N 43°24' E 004°60'0 0.0
2016-Jul-23 06:33N 43°24' E 004°60'0 0.0
2016-Jul-23 04:33N 43°24' E 004°60'0 0.0
2016-Jul-23 03:33N 43°24' E 004°60'0 0.0
2016-Jul-23 02:33N 43°24' E 004°60'0 0.0
2016-Jul-23 01:33N 43°24' E 004°60'0 0.0
2016-Jul-23 00:33N 43°24' E 004°60'0 0.0
2016-Jul-22 23:33N 43°24' E 004°60'0 0.0
2016-Jul-22 22:33N 43°24' E 004°60'0 0.0
2016-Jul-22 21:32N 43°24' E 004°60'0 0.0
2016-Jul-22 20:32N 43°24' E 004°60'0 0.0
2016-Jul-22 19:32N 43°24' E 004°60'0 0.0
2016-Jul-22 18:29N 43°24' E 004°60'0 0.0
2016-Jul-22 17:32N 43°24' E 004°60'0 0.0
2016-Jul-22 16:32N 43°24' E 004°60'0 0.0
2016-Jul-22 15:32N 43°24' E 004°60'0 0.0
2016-Jul-22 14:32N 43°24' E 004°60'0 0.0
2016-Jul-22 13:32N 43°24' E 004°60'0 0.0
2016-Jul-22 12:32N 43°24' E 004°60'0 0.0
2016-Jul-22 11:32N 43°24' E 004°60'0 0.0
2016-Jul-22 10:32N 43°24' E 004°60'0 0.0
2016-Jul-22 09:32N 43°24' E 004°60'0 0.0
2016-Jul-22 08:32N 43°24' E 004°60'0 0.0
2016-Jul-22 07:32N 43°24' E 004°60'0 0.0
2016-Jul-22 04:32N 43°24' E 004°60'0 0.0
2016-Jul-22 03:33N 43°24' E 004°60'0 0.0
2016-Jul-22 02:33N 43°24' E 004°60'0 0.0
2016-Jul-22 01:33N 43°24' E 004°60'0 0.0
2016-Jul-22 00:33N 43°24' E 004°60'0 0.0
2016-Jul-21 23:33N 43°24' E 004°60'0 0.0
2016-Jul-21 22:33N 43°24' E 004°60'0 0.0
2016-Jul-21 21:33N 43°24' E 004°60'0 0.0
2016-Jul-21 20:33N 43°24' E 004°60'0 0.0
2016-Jul-21 19:31N 43°24' E 004°60'0 0.0
2016-Jul-21 18:31N 43°24' E 004°60'0 0.0
2016-Jul-21 17:31N 43°24' E 004°60'0 0.0
2016-Jul-21 16:33N 43°24' E 004°60'0 0.0
2016-Jul-21 15:33N 43°24' E 004°60'0 0.0
2016-Jul-21 14:32N 43°24' E 004°60'0 0.0
2016-Jul-21 13:32N 43°24' E 004°60'0 0.0
2016-Jul-21 12:32N 43°24' E 004°60'0 0.0
2016-Jul-21 11:29N 43°24' E 004°60'0 0.0
2016-Jul-21 10:29N 43°24' E 004°60'0 0.0
2016-Jul-21 09:32N 43°24' E 004°60'0 0.0
2016-Jul-21 08:12N 43°24' E 004°60'0 0.0
2016-Jul-21 07:30N 43°24' E 004°60'0 0.0
2016-Jul-21 06:30N 43°24' E 004°60'  

Dump ship's entire track history